Elmsford, NY (10523)

6:03 PM EDT on April 25, 2015 (GMT -0400)
Tarryhill | | Change Station
CLOSE
Current Station
Personal Weather Station
Location: Tarrytown, NY
Elevation: 323 ft
Nearby Weather Stations
Active Advisory: Frost Advisory

Elev 323 ft 41.05 °N, 73.85 °W | Updated 1 minute ago

Clear
Clear
57.5 °F
Feels Like 57.5 °F
N
3.5
Wind Variable Wind from SW
Gusts 3.5 mph

Today
High -- | Low -- °F
--% Chance of Precip.
Yesterday
High -- | Low -- °F
Precip. -- in
6:01 AM 7:45 PM
Waxing Crescent, 49% visible
Pressure 29.69 in
Visibility 10.0 miles
Clouds Few 5000 ft
Dew Point 29 °F
Humidity 34%
Rainfall 0.00 in
Snow Depth Not available.
UV 1 out of 12
Pollen 10.80 out of 12
Air Quality Not available.
Flu Activity Widespread
METAR KHPN 252156Z 30008KT 10SM FEW050 14/M04 A2968 RMK AO2 SLP052 T01391044

More Conditions Fewer Conditions

Pressure 29.69 in
Visibility 10.0 miles
Clouds Few 5000 ft
Dew Point 29 °F
Humidity 34%
Rainfall 0.00 in
Snow Depth Not available.
UV 1 out of 12
Pollen 10.80 out of 12
Air Quality Not available.
Flu Activity Widespread
METAR KHPN 252156Z 30008KT 10SM FEW050 14/M04 A2968 RMK AO2 SLP052 T01391044

More Conditions Fewer Conditions

10-Day Weather Forecast

Almanac

Astronomy

Apr. 25, 2015 Rise Set
Actual Time
Civil Twilight
Nautical Twilight
Astronomical Twilight
Moon
Length of Visible Light
Length of Day
Tomorrow will be .
, % of the Moon is Illuminated

Today's Extremes

State Highs State Lows

Community

WunderPhotos

Upload Photos

1,816,824 photos uploaded!

WunderBlogs® & News

Nearby

Air Quality

  Air Quality AQ Index Pollutant
Not available.

Snow Depth

Station Depth Elevation

Earthquake Activity

City Distance Mag. Time & Date
Minimum magnitude displayed is 2.5.

Coastal Water Temperatures

Place Temperature

Stations

Nearby Weather Stations

Station Location Temp. Windchill Dew Point Humidity Wind Precip. Elev Updated Type
                   
Frost Advisory
Statement as of 3:43 PM EDT on April 25, 2015

... Frost advisory in effect from 2 am to 8 am EDT Sunday...

The National Weather Service in Upton has issued a frost
advisory... which is in effect from 2 am to 8 am EDT Sunday.

* Locations... much of southern Connecticut and the lower Hudson
Valley... interior portions of northeastern New Jersey... and
eastern Long Island.

* Hazards... ground temperatures falling to freezing.

* Temperatures... in the lower to mid 30s.

* Timing... late tonight into early Sunday morning.

* Impacts... possible damage to early season plants that are
unprotected.

Precautionary/preparedness actions...

A frost advisory means that frost is expected. Sensitive outdoor
plants should be protected.